Time;durP1;ratioP1;P1;durP2;ratioP2;P2;SDS_P1;SDS_P2;PMS_P1;PMS_P2;Temp;Humidity;BMP_temperature;BMP_pressure;BME280_temperature;BME280_humidity;BME280_pressure;Samples;Min_cycle;Max_cycle;Signal;HPM_P1;HPM_P2
2021/06/19 00:00:10;;;;;;;5.63;3.40;;;;;;;23.54;58.80;100674.55;127062;1098;64140;-83
2021/06/19 00:02:59;;;;;;;5.07;3.17;;;;;;;23.54;59.15;100666.47;127105;1100;62242;-84
2021/06/19 00:05:48;;;;;;;5.33;3.47;;;;;;;23.55;59.11;100665.48;126645;1098;64003;-84
2021/06/19 00:08:36;;;;;;;6.23;3.67;;;;;;;23.57;59.01;100659.97;127084;1098;64256;-83
2021/06/19 00:11:06;;;;;;;4.70;3.37;;;;;;;23.60;59.06;100648.92;126427;1100;64147;-83
2021/06/19 00:13:41;;;;;;;4.70;3.23;;;;;;;23.61;59.29;100656.03;126544;1099;64124;-83
2021/06/19 00:16:11;;;;;;;5.27;3.20;;;;;;;23.63;59.03;100656.77;127102;1098;64127;-83
2021/06/19 00:18:49;;;;;;;7.13;3.27;;;;;;;23.64;58.78;100649.52;126526;1099;64139;-84
2021/06/19 00:21:46;;;;;;;;;;;;;;;;;;;;;
2021/06/19 00:24:47;;;;;;;6.17;3.30;;;;;;;23.62;59.14;100648.78;127099;1099;64039;-83
2021/06/19 00:27:38;;;;;;;;;;;;;;;;;;;;;
2021/06/19 00:30:24;;;;;;;;;;;;;;;;;;;;;
2021/06/19 00:32:55;;;;;;;4.90;3.20;;;;;;;23.55;59.06;100646.63;127090;1100;64125;-84
2021/06/19 00:35:30;;;;;;;5.18;3.25;;;;;;;23.54;58.66;100644.07;127239;1096;64118;-83
2021/06/19 00:38:00;;;;;;;4.73;2.80;;;;;;;23.54;58.93;100639.52;127240;1095;64160;-84
2021/06/19 00:40:29;;;;;;;5.50;3.20;;;;;;;23.55;59.35;100635.85;127260;1097;64182;-84
2021/06/19 00:43:09;;;;;;;4.05;3.00;;;;;;;23.57;59.13;100639.25;127235;1095;64221;-83
2021/06/19 00:45:55;;;;;;;4.77;3.30;;;;;;;23.59;59.22;100645.38;127326;1095;64109;-83
2021/06/19 00:48:25;;;;;;;4.80;3.17;;;;;;;23.59;59.09;100648.08;127186;1096;64172;-82
2021/06/19 00:51:01;;;;;;;4.83;3.17;;;;;;;23.62;59.21;100648.78;127270;1096;64150;-81
2021/06/19 00:53:39;;;;;;;4.60;3.50;;;;;;;23.60;59.27;100646.23;127281;1096;64224;-83
2021/06/19 00:56:10;;;;;;;4.50;3.13;;;;;;;23.58;59.17;100654.45;127293;1096;64366;-84
2021/06/19 00:58:47;;;;;;;5.67;3.10;;;;;;;23.57;59.21;100655.42;127254;1096;64301;-83
2021/06/19 01:01:17;;;;;;;5.37;3.10;;;;;;;23.55;59.06;100651.14;127293;1095;64141;-84
2021/06/19 01:03:46;;;;;;;3.80;2.70;;;;;;;23.53;58.78;100653.97;127220;1095;64166;-84
2021/06/19 01:06:38;;;;;;;5.10;3.00;;;;;;;23.52;58.92;100654.11;126612;1098;64150;-83
2021/06/19 01:09:12;;;;;;;5.10;3.10;;;;;;;23.52;58.78;100651.41;127129;1098;64166;-83
2021/06/19 01:11:45;;;;;;;4.70;3.00;;;;;;;23.55;59.34;100656.53;126517;1099;64118;-83
2021/06/19 01:14:15;;;;;;;5.47;3.10;;;;;;;23.57;59.44;100658.12;127088;1099;64147;-83
2021/06/19 01:16:56;;;;;;;4.40;2.90;;;;;;;23.58;59.34;100650.91;126426;1100;64466;-83
2021/06/19 01:19:27;;;;;;;4.03;3.03;;;;;;;23.59;58.89;100656.16;127079;1100;64269;-83
2021/06/19 01:22:00;;;;;;;5.67;3.10;;;;;;;23.60;58.83;100663.27;126412;1099;64214;-84
2021/06/19 01:24:45;;;;;;;;;;;;;;;;;;;;;
2021/06/19 01:27:16;;;;;;;4.50;2.87;;;;;;;23.58;58.65;100667.92;127079;1098;64336;-83
2021/06/19 01:29:44;;;;;;;4.63;2.87;;;;;;;23.57;58.63;100666.20;127047;1099;64246;-83
2021/06/19 01:32:15;;;;;;;5.10;3.07;;;;;;;23.55;58.91;100670.00;127083;1100;64174;-85
2021/06/19 01:34:53;;;;;;;4.40;2.90;;;;;;;23.53;58.73;100663.91;127047;1098;64294;-83
2021/06/19 01:37:23;;;;;;;4.30;2.93;;;;;;;23.51;59.05;100663.16;127118;1100;64121;-83
2021/06/19 01:40:01;;;;;;;4.30;2.83;;;;;;;23.50;58.88;100664.17;127090;1100;64160;-83
2021/06/19 01:42:28;;;;;;;5.10;2.93;;;;;;;23.51;58.90;100668.55;127091;1099;64364;-83
2021/06/19 01:45:03;;;;;;;4.23;2.70;;;;;;;23.52;59.31;100664.88;127222;1096;64323;-84
2021/06/19 01:47:31;;;;;;;4.90;2.80;;;;;;;23.54;59.07;100662.93;127203;1095;64166;-81
2021/06/19 01:49:59;;;;;;;4.93;3.07;;;;;;;23.55;59.40;100668.19;127199;1096;64154;-84
2021/06/19 01:52:27;;;;;;;4.57;2.70;;;;;;;23.56;58.84;100661.81;127183;1095;62167;-83
2021/06/19 01:54:57;;;;;;;4.17;2.93;;;;;;;23.57;59.27;100668.05;127200;1096;64288;-84
2021/06/19 01:57:27;;;;;;;4.47;2.90;;;;;;;23.56;58.80;100663.64;127184;1096;64150;-84
2021/06/19 02:00:10;;;;;;;5.20;2.80;;;;;;;23.55;59.11;100665.48;127188;1096;64168;-84
2021/06/19 02:02:43;;;;;;;3.73;2.60;;;;;;;23.55;59.13;100661.92;127200;1095;64163;-83
2021/06/19 02:05:12;;;;;;;4.23;2.80;;;;;;;23.54;58.83;100665.63;127155;1096;64140;-82
2021/06/19 02:08:01;;;;;;;;;;;;;;;23.49;59.05;100652.52;127219;1096;63964;-84
2021/06/19 02:10:32;;;;;;;4.30;2.90;;;;;;;23.46;58.80;100652.79;127211;1096;64109;-83
2021/06/19 02:13:02;;;;;;;4.90;2.87;;;;;;;23.45;59.02;100653.77;127169;1096;64175;-83
2021/06/19 02:15:37;;;;;;;3.93;2.63;;;;;;;23.45;58.88;100653.77;127200;1096;64144;-83
2021/06/19 02:18:05;;;;;;;5.00;2.60;;;;;;;23.47;59.33;100661.72;127264;1096;64185;-83
2021/06/19 02:20:43;;;;;;;5.05;2.80;;;;;;;23.49;59.07;100652.52;127197;1096;64175;-83
2021/06/19 02:23:16;;;;;;;3.47;2.50;;;;;;;23.51;59.35;100653.27;127267;1096;64140;-83
2021/06/19 02:25:46;;;;;;;5.90;2.70;;;;;;;23.52;59.36;100649.59;127131;1096;64232;-82
2021/06/19 02:28:16;;;;;;;4.60;2.83;;;;;;;23.52;58.62;100649.59;127220;1096;64105;-83
2021/06/19 02:30:47;;;;;;;4.17;2.73;;;;;;;23.52;59.13;100646.02;127099;1095;64147;-83
2021/06/19 02:33:21;;;;;;;4.27;2.80;;;;;;;23.52;58.79;100649.59;127185;1095;64098;-83
2021/06/19 02:35:53;;;;;;;4.67;2.70;;;;;;;23.51;59.28;100647.88;127189;1095;64149;-83
2021/06/19 02:38:22;;;;;;;5.30;2.70;;;;;;;23.49;58.78;100647.13;127296;1095;64130;-85
2021/06/19 02:40:52;;;;;;;4.27;2.73;;;;;;;23.48;59.03;100642.72;127297;1095;64641;-84
2021/06/19 02:43:20;;;;;;;5.20;2.70;;;;;;;23.46;58.56;100636.63;127279;1096;64138;-83
2021/06/19 02:45:59;;;;;;;4.20;2.50;;;;;;;23.47;59.02;100641.04;127212;1096;64188;-83
2021/06/19 02:48:35;;;;;;;4.30;2.70;;;;;;;23.49;58.92;100640.91;127305;1095;63974;-83
2021/06/19 02:51:06;;;;;;;4.60;2.80;;;;;;;23.51;59.22;100639.80;127183;1095;64147;-83
2021/06/19 02:53:44;;;;;;;4.00;2.50;;;;;;;23.52;59.29;100636.13;127286;1095;64165;-84
2021/06/19 02:56:20;;;;;;;6.10;2.80;;;;;;;23.54;59.24;100633.30;127292;1096;64285;-83
2021/06/19 02:58:54;;;;;;;3.90;2.63;;;;;;;23.54;58.92;100641.38;127320;1096;64141;-83
2021/06/19 03:01:24;;;;;;;5.23;2.77;;;;;;;23.54;59.10;100638.68;127235;1096;64134;-83
2021/06/19 03:04:13;;;;;;;3.97;2.53;;;;;;;23.53;59.09;100637.80;127331;1097;64154;-83
2021/06/19 03:06:51;;;;;;;6.30;2.73;;;;;;;23.52;59.15;100638.81;127126;1096;64118;-83
2021/06/19 03:09:21;;;;;;;;;;;;;;;23.49;58.68;100638.20;127194;1096;64466;-82
2021/06/19 03:11:48;;;;;;;4.73;2.90;;;;;;;23.46;58.97;100636.63;127147;1096;64141;-82
2021/06/19 03:14:16;;;;;;;4.50;2.53;;;;;;;23.46;59.06;100642.02;127103;1096;64115;-83
2021/06/19 03:17:05;;;;;;;;;;;;;;;;;;;;;
2021/06/19 03:19:45;;;;;;;4.03;2.50;;;;;;;23.45;58.77;100639.45;127155;1096;64247;-82
2021/06/19 03:22:29;;;;;;;3.80;2.40;;;;;;;23.47;59.02;100632.95;127245;1096;64237;-85
2021/06/19 03:25:02;;;;;;;5.30;2.30;;;;;;;23.49;59.11;100630.97;127255;1096;64272;-85
2021/06/19 03:27:30;;;;;;;5.87;2.60;;;;;;;23.52;59.35;100627.16;127133;1096;64182;-83
2021/06/19 03:30:03;;;;;;;3.73;2.60;;;;;;;23.53;58.93;100624.34;127142;1096;64654;-83
2021/06/19 03:32:55;;;;;;;;;;;;;;;;;;;;;
2021/06/19 03:35:31;;;;;;;4.80;2.53;;;;;;;23.54;58.78;100628.75;127236;1095;64211;-82
2021/06/19 03:38:10;;;;;;;5.35;2.45;;;;;;;23.54;58.97;100636.83;127170;1095;64125;-84
2021/06/19 03:40:37;;;;;;;5.30;2.57;;;;;;;23.52;59.08;100627.16;127268;1096;64146;-84
2021/06/19 03:43:28;;;;;;;;;;;;;;;23.50;58.94;100626.45;126627;1100;64057;-83
2021/06/19 03:46:19;;;;;;;3.50;2.20;;;;;;;23.48;58.69;100636.49;127086;1099;64138;-84
2021/06/19 03:48:51;;;;;;;4.27;2.40;;;;;;;23.45;58.91;100634.91;127085;1099;61830;-83
2021/06/19 03:51:30;;;;;;;3.47;2.30;;;;;;;23.45;58.80;100642.15;127074;1099;64429;-83
2021/06/19 03:54:00;;;;;;;;;;;;;;;23.44;58.82;100638.58;127105;1098;64112;-84
2021/06/19 03:56:35;;;;;;;4.13;2.10;;;;;;;23.46;58.93;100631.23;127056;1099;64233;-84
2021/06/19 03:59:05;;;;;;;4.57;2.20;;;;;;;23.49;59.08;100633.66;127060;1098;61853;-83
2021/06/19 04:01:31;;;;;;;5.73;2.80;;;;;;;23.53;59.27;100627.03;127104;1099;64343;-83
2021/06/19 04:04:09;;;;;;;4.23;2.40;;;;;;;23.57;58.96;100630.33;127120;1099;64282;-84
2021/06/19 04:06:41;;;;;;;3.43;2.10;;;;;;;23.60;59.31;100632.75;127047;1100;64323;-83
2021/06/19 04:09:09;;;;;;;3.97;2.20;;;;;;;23.60;58.69;100628.23;127096;1098;64144;-83
2021/06/19 04:11:49;;;;;;;3.70;2.47;;;;;;;23.61;58.79;100626.38;126435;1099;64153;-83
2021/06/19 04:14:36;;;;;;;4.07;2.37;;;;;;;23.61;59.04;100623.69;127082;1098;64154;-83
2021/06/19 04:17:02;;;;;;;3.73;2.30;;;;;;;23.59;59.00;100621.13;127084;1100;64147;-83
2021/06/19 04:19:30;;;;;;;4.33;2.40;;;;;;;23.58;58.89;100614.03;127099;1098;64220;-84
2021/06/19 04:21:59;;;;;;;4.13;2.43;;;;;;;23.56;58.74;100618.70;127215;1096;64294;-84
2021/06/19 04:24:40;;;;;;;4.55;2.40;;;;;;;23.53;58.82;100621.64;127207;1097;64380;-83
2021/06/19 04:27:27;;;;;;;4.30;2.40;;;;;;;23.51;58.66;100623.63;127310;1096;64139;-83
2021/06/19 04:30:01;;;;;;;2.90;2.03;;;;;;;23.50;58.59;100629.99;127189;1097;64115;-81
2021/06/19 04:32:45;;;;;;;3.20;2.10;;;;;;;23.50;59.06;100624.61;127226;1095;64295;-84
2021/06/19 04:35:16;;;;;;;5.77;2.50;;;;;;;23.53;59.10;100624.34;127304;1096;64591;-84
2021/06/19 04:37:46;;;;;;;4.07;2.10;;;;;;;23.54;58.92;100628.75;127282;1095;63015;-83
2021/06/19 04:40:26;;;;;;;4.17;2.50;;;;;;;23.57;58.91;100638.41;127286;1096;64195;-85
2021/06/19 04:43:01;;;;;;;3.70;2.00;;;;;;;23.58;58.75;100640.97;127227;1097;64156;-85
2021/06/19 04:45:39;;;;;;;3.97;2.23;;;;;;;23.58;59.00;100643.67;127194;1096;64397;-85
2021/06/19 04:48:09;;;;;;;3.57;2.20;;;;;;;23.58;58.99;100640.97;127306;1096;64320;-85
2021/06/19 04:50:45;;;;;;;4.33;2.20;;;;;;;23.57;58.82;100638.41;127262;1096;64291;-84
2021/06/19 04:53:12;;;;;;;3.40;2.10;;;;;;;23.55;58.99;100646.63;127230;1096;64219;-84
2021/06/19 04:55:45;;;;;;;4.83;2.33;;;;;;;23.54;58.65;100644.07;127209;1095;62149;-82
2021/06/19 04:58:16;;;;;;;3.37;2.20;;;;;;;23.53;58.46;100643.20;127204;1096;64243;-83
2021/06/19 05:00:46;;;;;;;4.27;2.60;;;;;;;23.52;58.52;100638.81;127290;1096;64173;-84
2021/06/19 05:03:18;;;;;;;3.70;2.10;;;;;;;23.54;58.73;100641.38;127276;1094;64160;-84
2021/06/19 05:05:51;;;;;;;3.70;2.17;;;;;;;23.54;58.97;100631.44;127298;1095;64196;-83
2021/06/19 05:08:21;;;;;;;3.70;2.10;;;;;;;23.56;58.82;100637.56;127192;1095;64673;-83
2021/06/19 05:10:51;;;;;;;4.83;2.10;;;;;;;23.58;59.00;100637.44;127301;1096;64144;-84
2021/06/19 05:13:22;;;;;;;4.63;2.20;;;;;;;23.61;58.96;100634.47;127295;1096;64147;-83
2021/06/19 05:16:22;;;;;;;4.10;2.17;;;;;;;23.63;59.10;100623.55;127193;1096;64147;-83
2021/06/19 05:19:06;;;;;;;3.37;2.20;;;;;;;23.64;58.69;100626.11;127278;1096;64137;-83
2021/06/19 05:21:36;;;;;;;2.73;1.97;;;;;;;23.65;58.98;100630.52;127267;1097;64278;-84
2021/06/19 05:24:04;;;;;;;3.77;2.40;;;;;;;23.65;58.85;100624.30;127233;1095;64240;-84
2021/06/19 05:26:51;;;;;;;4.17;2.50;;;;;;;23.65;58.83;100629.69;127241;1096;61657;-83
2021/06/19 05:29:20;;;;;;;4.33;2.03;;;;;;;23.63;58.48;100627.13;127266;1095;64768;-83
2021/06/19 05:31:47;;;;;;;3.37;2.20;;;;;;;23.62;58.41;100643.40;127192;1095;63991;-83
2021/06/19 05:34:15;;;;;;;3.60;2.17;;;;;;;23.59;58.72;100642.69;127201;1095;64249;-82
2021/06/19 05:36:54;;;;;;;3.10;1.97;;;;;;;23.60;58.71;100646.23;127301;1095;64121;-83
2021/06/19 05:39:25;;;;;;;3.50;2.27;;;;;;;23.61;58.93;100639.86;127213;1095;64150;-83
2021/06/19 05:42:00;;;;;;;3.75;2.10;;;;;;;23.62;58.62;100641.58;127226;1096;64398;-84
2021/06/19 05:44:27;;;;;;;4.30;2.40;;;;;;;23.62;58.77;100640.70;127300;1095;63963;-83
2021/06/19 05:47:03;;;;;;;3.53;2.20;;;;;;;23.63;58.86;100639.72;127114;1097;63927;-83
2021/06/19 05:49:30;;;;;;;3.60;2.10;;;;;;;23.62;58.84;100644.27;127215;1096;64184;-84
2021/06/19 05:52:07;;;;;;;2.83;2.00;;;;;;;23.62;58.77;100654.17;127208;1095;64147;-84
2021/06/19 05:54:46;;;;;;;4.77;2.27;;;;;;;23.61;58.58;100650.64;127324;1096;64259;-84
2021/06/19 05:57:16;;;;;;;3.87;2.30;;;;;;;23.59;58.54;100649.93;127269;1094;64150;-82
2021/06/19 06:00:02;;;;;;;;;;;;;;;;;;;;;
2021/06/19 06:02:36;;;;;;;3.30;2.20;;;;;;;23.56;58.64;100642.08;127301;1095;64179;-83
2021/06/19 06:05:04;;;;;;;3.97;2.00;;;;;;;23.54;58.88;100647.61;127317;1095;64248;-83
2021/06/19 06:07:34;;;;;;;4.13;2.30;;;;;;;23.55;58.92;100640.37;127223;1097;64158;-83
2021/06/19 06:10:02;;;;;;;3.60;2.00;;;;;;;23.55;59.01;100652.02;127230;1095;64174;-83
2021/06/19 06:12:45;;;;;;;3.47;2.00;;;;;;;23.57;59.03;100651.88;127161;1097;64112;-83
2021/06/19 06:15:15;;;;;;;3.07;1.97;;;;;;;23.59;58.89;100647.23;127158;1095;64527;-83
2021/06/19 06:17:51;;;;;;;3.60;2.10;;;;;;;23.59;58.74;100649.93;127146;1096;64150;-82
2021/06/19 06:20:20;;;;;;;3.57;2.10;;;;;;;23.59;58.67;100652.63;127177;1097;62993;-83
2021/06/19 06:22:59;;;;;;;3.45;2.10;;;;;;;23.59;58.47;100644.54;127177;1096;64314;-83
2021/06/19 06:25:25;;;;;;;3.70;2.10;;;;;;;23.57;58.79;100652.73;127187;1096;63161;-83
2021/06/19 06:27:57;;;;;;;3.17;2.03;;;;;;;23.57;58.46;100658.12;127173;1096;64144;-84
2021/06/19 06:31:01;;;;;;;3.40;2.00;;;;;;;23.56;58.91;100656.43;127118;1096;64307;-84
2021/06/19 06:33:34;;;;;;;4.03;2.27;;;;;;;23.55;58.81;100654.72;127117;1096;64112;-84
2021/06/19 06:36:21;;;;;;;3.57;2.10;;;;;;;23.54;58.49;100657.54;127167;1095;64208;-84
2021/06/19 06:39:13;;;;;;;3.87;2.07;;;;;;;23.55;58.69;100662.80;127072;1100;64115;-84
2021/06/19 06:41:41;;;;;;;3.30;2.00;;;;;;;23.56;58.92;100655.55;126421;1100;64127;-84
2021/06/19 06:44:19;;;;;;;3.40;2.00;;;;;;;23.59;58.80;100664.24;126485;1100;64301;-84
2021/06/19 06:47:04;;;;;;;3.53;2.20;;;;;;;23.59;58.69;100653.47;126592;1100;64392;-84
2021/06/19 06:49:37;;;;;;;3.33;2.03;;;;;;;23.61;58.77;100666.80;127078;1100;64157;-82
2021/06/19 06:52:07;;;;;;;3.03;2.03;;;;;;;23.62;58.87;100656.88;127052;1098;64150;-83
2021/06/19 06:54:38;;;;;;;2.60;1.93;;;;;;;23.63;59.24;100661.28;127093;1100;64177;-84
2021/06/19 06:57:12;;;;;;;3.73;2.10;;;;;;;23.60;58.83;100657.88;127118;1097;64089;-83
2021/06/19 06:59:48;;;;;;;3.20;2.07;;;;;;;23.60;58.59;100659.70;127098;1098;64106;-83
2021/06/19 07:02:25;;;;;;;3.50;2.00;;;;;;;23.57;58.81;100655.42;127072;1100;64118;-83
2021/06/19 07:05:02;;;;;;;3.23;2.03;;;;;;;23.55;58.81;100660.10;127068;1098;64173;-83
2021/06/19 07:07:43;;;;;;;4.07;2.13;;;;;;;23.54;58.34;100650.30;127129;1099;64154;-83
2021/06/19 07:10:16;;;;;;;3.50;2.10;;;;;;;23.52;58.71;100663.06;127080;1099;64386;-83
2021/06/19 07:12:54;;;;;;;3.03;2.00;;;;;;;23.53;58.58;100667.45;126455;1100;64119;-84
2021/06/19 07:15:47;;;;;;;;;;;;;;;;;;;;;
2021/06/19 07:18:20;;;;;;;3.63;2.10;;;;;;;23.56;58.86;100664.52;127271;1096;64203;-83
2021/06/19 07:21:16;;;;;;;2.97;1.90;;;;;;;23.57;58.58;100655.42;127213;1094;63972;-83
2021/06/19 07:23:47;;;;;;;3.43;2.00;;;;;;;23.57;58.51;100650.03;127255;1096;64224;-82
2021/06/19 07:26:18;;;;;;;3.43;2.00;;;;;;;23.57;58.63;100639.25;127204;1095;64146;-83
2021/06/19 07:29:12;;;;;;;3.03;1.87;;;;;;;23.58;58.52;100645.52;127224;1095;64121;-82
2021/06/19 07:31:47;;;;;;;3.03;2.10;;;;;;;23.57;58.80;100644.64;127213;1095;63926;-83
2021/06/19 07:34:37;;;;;;;;;;;;;;;;;;;;;
2021/06/19 07:37:07;;;;;;;4.43;2.17;;;;;;;23.54;58.92;100639.52;126931;1096;64214;-83
2021/06/19 07:39:45;;;;;;;3.27;2.13;;;;;;;23.54;58.92;100633.30;127006;1095;64255;-83
2021/06/19 07:42:22;;;;;;;3.77;2.20;;;;;;;23.52;58.85;100628.03;126991;1096;64145;-82
2021/06/19 07:44:50;;;;;;;3.43;2.03;;;;;;;23.53;58.79;100635.11;126974;1095;64034;-82
2021/06/19 07:47:22;;;;;;;2.90;1.90;;;;;;;23.55;59.11;100630.47;127164;1096;64304;-83
2021/06/19 07:49:51;;;;;;;2.53;1.73;;;;;;;23.56;59.01;100629.48;127182;1095;64144;-83
2021/06/19 07:52:20;;;;;;;3.27;1.90;;;;;;;23.58;58.95;100632.89;127301;1095;64144;-83
2021/06/19 07:55:00;;;;;;;;;;;;;;;;;;;;;
2021/06/19 07:57:29;;;;;;;3.23;1.90;;;;;;;23.59;58.83;100629.22;127310;1096;64160;-83
2021/06/19 08:00:08;;;;;;;3.47;1.90;;;;;;;23.61;58.68;100634.47;127234;1096;62077;-83
2021/06/19 08:02:54;;;;;;;;;;;;;;;;;;;;;
2021/06/19 08:05:32;;;;;;;3.13;2.10;;;;;;;23.58;58.47;100634.73;127193;1096;64259;-83
2021/06/19 08:08:04;;;;;;;2.95;2.00;;;;;;;23.55;58.66;100630.47;127290;1096;64296;-84
2021/06/19 08:10:34;;;;;;;3.37;2.03;;;;;;;23.54;58.75;100628.75;127208;1096;64256;-83
2021/06/19 08:13:04;;;;;;;3.20;2.00;;;;;;;23.52;58.42;100628.03;127262;1095;64141;-84
2021/06/19 08:15:33;;;;;;;3.10;1.80;;;;;;;23.51;58.95;100623.63;127297;1096;64137;-83
2021/06/19 08:18:03;;;;;;;3.90;2.10;;;;;;;23.52;58.46;100629.86;127251;1096;64120;-84
2021/06/19 08:20:35;;;;;;;3.18;2.00;;;;;;;23.54;59.09;100633.30;127221;1095;65619;-83
2021/06/19 08:23:04;;;;;;;3.37;2.10;;;;;;;23.55;58.91;100627.77;127184;1095;64169;-84
2021/06/19 08:25:33;;;;;;;3.17;2.03;;;;;;;23.57;58.79;100627.63;127282;1095;64194;-83
2021/06/19 08:28:28;;;;;;;3.53;2.20;;;;;;;23.59;58.58;100639.16;126592;1098;64256;-83
2021/06/19 08:30:59;;;;;;;2.80;1.90;;;;;;;23.58;58.90;100643.67;127119;1099;64437;-84
2021/06/19 08:33:44;;;;;;;3.13;2.00;;;;;;;23.59;58.83;100639.16;127071;1099;62843;-84
2021/06/19 08:36:19;;;;;;;3.73;2.40;;;;;;;23.59;58.47;100650.77;126493;1100;64115;-83
2021/06/19 08:38:52;;;;;;;2.95;2.00;;;;;;;23.56;58.43;100634.88;127068;1100;64389;-83
2021/06/19 08:41:19;;;;;;;2.83;2.00;;;;;;;23.55;58.27;100629.59;127092;1100;64475;-84
2021/06/19 08:44:23;;;;;;;2.97;2.00;;;;;;;23.54;58.37;100626.05;126310;1100;64458;-84
2021/06/19 08:47:01;;;;;;;2.87;1.90;;;;;;;23.52;58.73;100622.66;126302;1100;64173;-83
2021/06/19 08:49:36;;;;;;;3.47;1.90;;;;;;;23.53;58.95;100621.64;126297;1098;64118;-84
2021/06/19 08:52:18;;;;;;;3.30;1.83;;;;;;;23.55;58.60;100625.08;126295;1098;64215;-83
2021/06/19 08:54:53;;;;;;;4.20;2.00;;;;;;;23.57;58.73;100628.48;126308;1098;64163;-83
2021/06/19 08:57:26;;;;;;;3.50;2.00;;;;;;;23.59;58.48;100628.38;126288;1100;64574;-83
2021/06/19 08:59:59;;;;;;;3.20;1.90;;;;;;;23.60;58.83;100633.63;126313;1100;62158;-84
2021/06/19 09:02:40;;;;;;;3.40;2.00;;;;;;;23.60;58.57;100633.63;126331;1098;64310;-83
2021/06/19 09:05:27;;;;;;;3.00;2.00;;;;;;;23.60;58.35;100638.14;126356;1100;64358;-83
2021/06/19 09:08:17;;;;;;;3.70;2.03;;;;;;;23.59;58.58;100642.69;126322;1098;64294;-83
2021/06/19 09:10:46;;;;;;;;;;;;;;;23.57;58.76;100628.48;126340;1098;62578;-84
2021/06/19 09:13:27;;;;;;;3.47;2.00;;;;;;;23.56;58.53;100636.69;126321;1100;64153;-84
2021/06/19 09:16:02;;;;;;;3.23;2.10;;;;;;;23.53;58.56;100627.03;126317;1099;64812;-81
2021/06/19 09:18:32;;;;;;;3.67;2.03;;;;;;;23.53;58.58;100629.72;126284;1099;64938;-84
2021/06/19 09:21:10;;;;;;;3.85;2.20;;;;;;;23.51;58.50;100622.75;126490;1098;64173;-83
2021/06/19 09:23:51;;;;;;;2.83;1.80;;;;;;;23.51;58.58;100628.14;127084;1099;64292;-83
2021/06/19 09:26:22;;;;;;;3.10;2.00;;;;;;;23.53;58.71;100616.25;127097;1097;64151;-82
2021/06/19 09:29:22;;;;;;;;;;;;;;;;;;;;;
2021/06/19 09:31:58;;;;;;;3.75;2.00;;;;;;;23.56;58.95;100618.70;127122;1099;62013;-83
2021/06/19 09:34:31;;;;;;;2.83;1.97;;;;;;;23.58;59.00;100629.35;127103;1100;64284;-82
2021/06/19 09:37:03;;;;;;;2.63;1.80;;;;;;;23.59;58.48;100623.83;127121;1100;64180;-84
2021/06/19 09:39:32;;;;;;;2.60;1.80;;;;;;;23.58;58.41;100622.11;127117;1099;64326;-83
2021/06/19 09:42:15;;;;;;;2.90;1.90;;;;;;;23.59;58.31;100617.59;127087;1098;64088;-83
2021/06/19 09:44:51;;;;;;;3.20;1.90;;;;;;;23.58;58.81;100618.57;127139;1097;64285;-85
2021/06/19 09:47:29;;;;;;;3.60;2.10;;;;;;;23.57;58.40;100612.31;127306;1096;64016;-81
2021/06/19 09:50:05;;;;;;;3.70;2.10;;;;;;;23.56;58.37;100602.55;127197;1095;64130;-83
2021/06/19 09:52:32;;;;;;;3.00;2.00;;;;;;;23.56;58.85;100605.23;127215;1095;64144;-83
2021/06/19 09:55:32;;;;;;;2.90;1.95;;;;;;;23.57;58.78;100598.84;127323;1095;64214;-83
2021/06/19 09:58:05;;;;;;;3.43;2.00;;;;;;;23.59;58.95;100601.43;127266;1094;64246;-83
2021/06/19 10:00:47;;;;;;;2.93;1.73;;;;;;;23.62;58.92;100605.67;127290;1096;64176;-83
2021/06/19 10:03:16;;;;;;;2.97;1.87;;;;;;;23.64;58.92;100591.08;127230;1095;64169;-83
2021/06/19 10:06:03;;;;;;;3.20;1.70;;;;;;;23.67;58.82;100595.36;127107;1100;64387;-84
2021/06/19 10:08:34;;;;;;;3.78;1.93;;;;;;;23.68;58.71;100597.08;127102;1099;64280;-83
2021/06/19 10:11:01;;;;;;;4.00;1.90;;;;;;;23.68;58.44;100610.55;127075;1100;64170;-83
2021/06/19 10:13:31;;;;;;;3.43;1.90;;;;;;;23.67;58.49;100603.44;127078;1100;64112;-83
2021/06/19 10:15:58;;;;;;;3.60;2.20;;;;;;;23.66;58.71;100599.91;127081;1099;64151;-83
2021/06/19 10:18:25;;;;;;;2.97;2.00;;;;;;;23.65;58.58;100602.73;127067;1098;63958;-83
2021/06/19 10:20:55;;;;;;;2.70;1.80;;;;;;;23.64;58.66;100606.41;127097;1099;64178;-83
2021/06/19 10:23:32;;;;;;;3.23;1.97;;;;;;;23.62;58.12;100605.67;126481;1099;64137;-83
2021/06/19 10:26:08;;;;;;;2.67;1.90;;;;;;;23.62;58.28;100589.50;126600;1100;63968;-84
2021/06/19 10:29:00;;;;;;;3.10;1.90;;;;;;;23.62;58.61;100594.89;127105;1099;63929;-83
2021/06/19 10:32:05;;;;;;;3.10;1.80;;;;;;;23.63;58.57;100605.56;126236;1102;64151;-84
2021/06/19 10:34:39;;;;;;;2.50;1.85;;;;;;;23.66;58.49;100605.30;126323;1100;64294;-84
2021/06/19 10:37:11;;;;;;;2.73;1.83;;;;;;;23.68;58.73;100594.38;125900;1101;64173;-84
2021/06/19 10:39:45;;;;;;;3.87;2.00;;;;;;;23.70;58.44;100597.81;126314;1100;64301;-84
2021/06/19 10:42:34;;;;;;;2.87;1.90;;;;;;;23.70;58.77;100595.12;126281;1100;64143;-83
2021/06/19 10:45:24;;;;;;;3.17;1.90;;;;;;;23.69;58.67;100596.94;127121;1099;64297;-83
2021/06/19 10:48:10;;;;;;;7.70;1.90;;;;;;;23.69;58.61;100577.23;127136;1099;64112;-83
2021/06/19 10:51:21;;;;;;;2.97;2.10;;;;;;;23.67;58.51;100590.84;126618;1099;64346;-83
2021/06/19 10:54:27;;;;;;;2.63;1.90;;;;;;;23.65;58.44;100591.95;126308;1098;64179;-83
2021/06/19 10:57:21;;;;;;;3.17;2.00;;;;;;;23.63;58.49;100591.22;126304;1098;64153;-83
2021/06/19 11:00:07;;;;;;;;;;;;;;;;;;;;;
2021/06/19 11:02:58;;;;;;;3.40;2.00;;;;;;;23.63;58.28;100588.52;126312;1099;64321;-84
2021/06/19 11:06:26;;;;;;;2.63;1.73;;;;;;;23.66;58.69;100591.82;126329;1098;64384;-83
2021/06/19 11:09:26;;;;;;;3.43;1.83;;;;;;;23.69;58.50;100578.07;126128;1102;64262;-84
2021/06/19 11:12:08;;;;;;;2.90;1.90;;;;;;;23.71;58.69;100575.23;126306;1102;64171;-84
2021/06/19 11:14:51;;;;;;;2.65;1.73;;;;;;;23.73;58.19;100573.28;126317;1102;65466;-83
2021/06/19 11:17:55;;;;;;;2.77;1.80;;;;;;;23.72;58.11;100579.66;126283;1102;64368;-83
2021/06/19 11:20:27;;;;;;;3.13;1.90;;;;;;;23.72;58.61;100568.88;126293;1101;64285;-84
2021/06/19 11:23:38;;;;;;;;;;;;;;;;;;;;;
2021/06/19 11:26:09;;;;;;;3.40;1.90;;;;;;;23.70;58.41;100552.00;125856;1102;64300;-83
2021/06/19 11:28:39;;;;;;;2.90;1.90;;;;;;;23.68;58.37;100562.88;125862;1103;64112;-83
2021/06/19 11:31:26;;;;;;;3.07;1.80;;;;;;;23.67;58.35;100547.73;125847;1103;64301;-84
2021/06/19 11:34:13;;;;;;;2.87;1.70;;;;;;;23.66;58.01;100551.40;126213;1103;64173;-83
2021/06/19 11:36:45;;;;;;;3.00;1.90;;;;;;;23.66;58.38;100548.70;126189;1100;64186;-83
2021/06/19 11:39:19;;;;;;;3.97;1.93;;;;;;;23.69;58.52;100558.36;126184;1100;65101;-83
2021/06/19 11:42:11;;;;;;;2.83;1.80;;;;;;;23.72;58.45;100560.78;126931;1100;64492;-82
2021/06/19 11:44:55;;;;;;;2.87;1.87;;;;;;;23.75;58.41;100563.23;126942;1100;64652;-82
2021/06/19 11:47:31;;;;;;;2.70;1.90;;;;;;;23.77;58.26;100563.94;126860;1099;64157;-84
2021/06/19 11:50:09;;;;;;;3.17;2.07;;;;;;;23.78;58.21;100554.88;126824;1099;64222;-85
2021/06/19 11:52:36;;;;;;;2.17;1.70;;;;;;;23.79;57.68;100558.41;126858;1098;64345;-84
2021/06/19 11:55:05;;;;;;;3.07;1.80;;;;;;;23.77;58.19;100566.64;126992;1098;64115;-82
2021/06/19 11:58:09;;;;;;;2.70;2.00;;;;;;;23.76;58.27;100573.01;127012;1099;64171;-83
2021/06/19 12:00:56;;;;;;;2.93;1.87;;;;;;;23.74;58.27;100577.69;127009;1100;64285;-84
2021/06/19 12:03:47;;;;;;;;;;;;;;;;;;;;;
2021/06/19 12:06:17;;;;;;;2.80;1.90;;;;;;;23.70;58.23;100590.56;127307;1095;64151;-83
2021/06/19 12:08:56;;;;;;;2.93;1.73;;;;;;;23.68;58.33;100573.66;127149;1096;64144;-83
2021/06/19 12:11:41;;;;;;;2.60;1.70;;;;;;;23.70;58.40;100573.55;127189;1096;64112;-83
2021/06/19 12:14:38;;;;;;;4.17;1.90;;;;;;;23.71;58.49;100578.81;127309;1096;64163;-84
2021/06/19 12:17:11;;;;;;;2.30;1.87;;;;;;;23.73;58.04;100576.81;127136;1100;64172;-81
2021/06/19 12:19:55;;;;;;;2.53;1.80;;;;;;;23.76;58.54;100576.58;127090;1099;64147;-84
2021/06/19 12:22:25;;;;;;;2.43;1.73;;;;;;;23.78;58.05;100573.74;127085;1100;64221;-84